Time;durP1;ratioP1;P1;durP2;ratioP2;P2;SDS_P1;SDS_P2;PMS_P1;PMS_P2;Temp;Humidity;BMP_temperature;BMP_pressure;BME280_temperature;BME280_humidity;BME280_pressure;Samples;Min_cycle;Max_cycle;Signal;HPM_P1;HPM_P2
2022/08/31 00:06:04;;;;;;;0.00;0.00;;;19.90;99.90;;;;;;6250022;28;20128;-76
2022/08/31 00:09:07;;;;;;;0.00;0.00;;;19.90;99.90;;;;;;6248884;28;20049;-77
2022/08/31 00:12:10;;;;;;;0.00;0.00;;;19.80;99.90;;;;;;6249306;28;20045;-77
2022/08/31 00:15:15;;;;;;;0.00;0.00;;;19.70;99.90;;;;;;6248743;28;20049;-75
2022/08/31 00:18:17;;;;;;;0.00;0.00;;;19.70;99.90;;;;;;6248619;28;20056;-76
2022/08/31 00:21:21;;;;;;;0.00;0.00;;;19.60;99.90;;;;;;6249369;28;20053;-77
2022/08/31 00:24:23;;;;;;;0.00;0.00;;;19.60;99.90;;;;;;6248612;28;20102;-76
2022/08/31 00:27:27;;;;;;;0.00;0.00;;;19.50;99.90;;;;;;6248234;28;20049;-77
2022/08/31 00:30:29;;;;;;;0.00;0.00;;;19.50;99.90;;;;;;6247324;28;20392;-76
2022/08/31 00:33:31;;;;;;;0.00;0.00;;;19.50;99.90;;;;;;6244046;28;20041;-76
2022/08/31 00:36:33;;;;;;;0.00;0.00;;;19.50;99.90;;;;;;6248332;28;20045;-76
2022/08/31 00:39:34;;;;;;;0.00;0.00;;;19.40;99.90;;;;;;6247819;28;20045;-76
2022/08/31 00:42:37;;;;;;;0.00;0.00;;;19.40;99.90;;;;;;6247972;28;20057;-77
2022/08/31 00:45:39;;;;;;;0.00;0.00;;;19.40;99.90;;;;;;6248539;28;20053;-75
2022/08/31 00:48:46;;;;;;;0.40;0.40;;;19.40;99.90;;;;;;6246669;28;20511;-77
2022/08/31 00:51:51;;;;;;;0.00;0.00;;;19.40;99.90;;;;;;6247021;28;20049;-75
2022/08/31 00:54:56;;;;;;;0.00;0.00;;;19.40;99.90;;;;;;6237619;28;20050;-76
2022/08/31 00:58:03;;;;;;;0.00;0.00;;;19.50;99.90;;;;;;6221514;28;20053;-77
2022/08/31 01:01:07;;;;;;;0.00;0.00;;;19.50;99.90;;;;;;6221464;28;20038;-75
2022/08/31 01:04:09;;;;;;;0.40;0.40;;;19.60;99.90;;;;;;6221881;28;20045;-77
2022/08/31 01:07:11;;;;;;;0.00;0.00;;;19.60;99.90;;;;;;6221432;28;20060;-75
2022/08/31 01:10:14;;;;;;;0.40;0.40;;;19.60;99.90;;;;;;6222476;28;20054;-77
2022/08/31 01:13:18;;;;;;;0.00;0.00;;;19.60;99.90;;;;;;6221956;28;20054;-77
2022/08/31 01:16:24;;;;;;;0.00;0.00;;;19.60;99.90;;;;;;6221892;28;20054;-76
2022/08/31 01:19:32;;;;;;;0.00;0.00;;;19.70;99.90;;;;;;6221458;28;20049;-77
2022/08/31 01:22:41;;;;;;;0.00;0.00;;;19.60;99.90;;;;;;6221739;28;20053;-75
2022/08/31 01:25:47;;;;;;;0.00;0.00;;;19.70;99.90;;;;;;6222111;28;20053;-77
2022/08/31 01:28:50;;;;;;;0.00;0.00;;;19.70;99.90;;;;;;6221344;28;20049;-77
2022/08/31 01:31:52;;;;;;;0.00;0.00;;;19.70;99.90;;;;;;6221491;28;20057;-77
2022/08/31 01:34:53;;;;;;;0.30;0.30;;;19.70;99.90;;;;;;6238092;28;20048;-77
2022/08/31 01:37:57;;;;;;;0.00;0.00;;;19.60;99.90;;;;;;6245835;28;20706;-76
2022/08/31 01:41:01;;;;;;;0.00;0.00;;;19.60;99.90;;;;;;6244805;28;20045;-76
2022/08/31 01:44:03;;;;;;;0.00;0.00;;;19.60;99.90;;;;;;6232322;28;20054;-77
2022/08/31 01:47:05;;;;;;;0.00;0.00;;;19.60;99.90;;;;;;6236239;28;20555;-77
2022/08/31 01:50:08;;;;;;;0.00;0.00;;;19.70;99.90;;;;;;6245356;28;20052;-77
2022/08/31 01:53:11;;;;;;;0.00;0.00;;;19.70;99.90;;;;;;6244535;28;20064;-77
2022/08/31 01:56:16;;;;;;;0.00;0.00;;;19.70;99.90;;;;;;6244569;28;20049;-77
2022/08/31 01:59:20;;;;;;;0.00;0.00;;;19.70;99.90;;;;;;6244485;28;20416;-78
2022/08/31 02:02:22;;;;;;;0.00;0.00;;;19.70;99.90;;;;;;6245413;28;20057;-76
2022/08/31 02:05:24;;;;;;;0.00;0.00;;;19.70;99.90;;;;;;6245852;28;20053;-75
2022/08/31 02:08:25;;;;;;;0.00;0.00;;;19.70;99.90;;;;;;6244818;28;20056;-77
2022/08/31 02:11:28;;;;;;;0.00;0.00;;;19.70;99.90;;;;;;6245245;28;20447;-76
2022/08/31 02:14:30;;;;;;;0.10;0.10;;;19.70;99.90;;;;;;6245278;28;20527;-76
2022/08/31 02:17:32;;;;;;;0.00;0.00;;;19.70;99.90;;;;;;6245306;28;20053;-76
2022/08/31 02:20:34;;;;;;;0.00;0.00;;;19.60;99.90;;;;;;6244847;28;20042;-77
2022/08/31 02:23:35;;;;;;;0.00;0.00;;;19.60;99.90;;;;;;6245150;28;20072;-77
2022/08/31 02:26:39;;;;;;;0.00;0.00;;;19.60;99.90;;;;;;6244670;28;20564;-76
2022/08/31 02:29:40;;;;;;;0.00;0.00;;;19.50;99.90;;;;;;6245167;28;20049;-75
2022/08/31 02:32:43;;;;;;;0.00;0.00;;;19.60;99.90;;;;;;6245049;28;20052;-77
2022/08/31 02:35:45;;;;;;;0.00;0.00;;;19.60;99.90;;;;;;6231267;28;20053;-77
2022/08/31 02:38:46;;;;;;;0.00;0.00;;;19.60;99.90;;;;;;6219921;28;20042;-76
2022/08/31 02:41:49;;;;;;;0.00;0.00;;;19.70;99.90;;;;;;6220692;28;20045;-77
2022/08/31 02:44:51;;;;;;;0.00;0.00;;;19.80;99.90;;;;;;6239351;28;20415;-75
2022/08/31 02:47:54;;;;;;;0.00;0.00;;;19.80;99.90;;;;;;6244527;28;20144;-76
2022/08/31 02:51:04;;;;;;;0.28;0.28;;;19.80;99.90;;;;;;6244606;28;20049;-76
2022/08/31 02:54:06;;;;;;;0.00;0.00;;;19.90;99.90;;;;;;6248902;28;20057;-75
2022/08/31 02:57:09;;;;;;;0.00;0.00;;;20.00;99.90;;;;;;6249420;28;20049;-77
2022/08/31 03:00:12;;;;;;;0.00;0.00;;;20.10;99.90;;;;;;6249220;28;20064;-76
2022/08/31 03:03:15;;;;;;;0.10;0.10;;;20.10;99.90;;;;;;6249392;28;20430;-75
2022/08/31 03:06:18;;;;;;;0.10;0.10;;;19.90;99.90;;;;;;6249352;28;20054;-76
2022/08/31 03:09:20;;;;;;;0.00;0.00;;;19.80;99.90;;;;;;6249465;28;20056;-76
2022/08/31 03:12:23;;;;;;;0.17;0.17;;;19.70;99.90;;;;;;6249167;28;20046;-76
2022/08/31 03:15:26;;;;;;;0.00;0.00;;;19.70;99.90;;;;;;6249188;28;20041;-76
2022/08/31 03:18:28;;;;;;;0.00;0.00;;;19.60;99.90;;;;;;6248932;28;20056;-76
2022/08/31 03:21:29;;;;;;;0.00;0.00;;;19.60;99.90;;;;;;6249448;28;20418;-76
2022/08/31 03:24:31;;;;;;;0.00;0.00;;;19.60;99.90;;;;;;6248907;28;20049;-76
2022/08/31 03:27:35;;;;;;;0.00;0.00;;;19.60;99.90;;;;;;6248435;28;20446;-76
2022/08/31 03:30:37;;;;;;;0.00;0.00;;;19.60;99.90;;;;;;6248712;28;20049;-76
2022/08/31 03:33:39;;;;;;;0.00;0.00;;;19.70;99.90;;;;;;6249268;28;20442;-74
2022/08/31 03:36:41;;;;;;;0.00;0.00;;;19.80;99.90;;;;;;6238467;28;20049;-76
2022/08/31 03:39:43;;;;;;;0.00;0.00;;;19.90;99.90;;;;;;6247701;28;20056;-76
2022/08/31 03:42:46;;;;;;;0.00;0.00;;;20.00;99.90;;;;;;6248564;28;20132;-75
2022/08/31 03:45:48;;;;;;;0.00;0.00;;;20.10;99.90;;;;;;6248659;28;20046;-76
2022/08/31 03:48:49;;;;;;;0.00;0.00;;;20.10;99.90;;;;;;6247984;28;20045;-76
2022/08/31 03:51:51;;;;;;;0.00;0.00;;;20.20;99.90;;;;;;6248341;28;20045;-75
2022/08/31 03:54:53;;;;;;;1.85;0.55;;;20.20;99.90;;;;;;6248256;28;20052;-77
2022/08/31 03:57:56;;;;;;;0.00;0.00;;;20.20;99.90;;;;;;6248090;28;20045;-76
2022/08/31 04:00:58;;;;;;;0.00;0.00;;;20.20;99.90;;;;;;6247777;28;20056;-77
2022/08/31 04:04:00;;;;;;;0.00;0.00;;;20.30;99.90;;;;;;6247599;28;20050;-77
2022/08/31 04:07:01;;;;;;;0.00;0.00;;;20.30;99.90;;;;;;6249354;28;20057;-77
2022/08/31 04:10:04;;;;;;;0.00;0.00;;;20.30;99.90;;;;;;6231770;28;20557;-77
2022/08/31 04:13:07;;;;;;;0.00;0.00;;;20.30;99.90;;;;;;6226482;28;20053;-78
2022/08/31 04:16:11;;;;;;;4.38;2.80;;;20.30;99.90;;;;;;6224958;28;20439;-78
2022/08/31 04:19:14;;;;;;;5.57;3.05;;;20.30;99.90;;;;;;6224299;28;20117;-78
2022/08/31 04:22:16;;;;;;;8.63;2.05;;;20.30;99.90;;;;;;6225408;28;20101;-76
2022/08/31 04:25:18;;;;;;;12.80;4.72;;;20.30;99.90;;;;;;6224805;28;20073;-77
2022/08/31 04:28:21;;;;;;;7.82;4.53;;;20.30;99.90;;;;;;6224462;28;20058;-78
2022/08/31 04:31:25;;;;;;;6.65;4.32;;;20.30;99.90;;;;;;6224489;28;20496;-78
2022/08/31 04:34:27;;;;;;;13.18;7.60;;;20.40;99.90;;;;;;6225029;28;20149;-78
2022/08/31 04:37:29;;;;;;;15.25;7.20;;;20.40;99.90;;;;;;6238473;28;20057;-77
2022/08/31 04:40:31;;;;;;;17.88;10.23;;;20.50;99.90;;;;;;6249962;28;20054;-78
2022/08/31 04:43:34;;;;;;;19.48;10.73;;;20.50;99.90;;;;;;6248749;28;20058;-78
2022/08/31 04:46:38;;;;;;;20.60;10.43;;;20.50;99.90;;;;;;6248595;28;20050;-76
2022/08/31 04:49:40;;;;;;;20.45;10.63;;;20.40;99.90;;;;;;6247333;28;20057;-76
2022/08/31 04:52:42;;;;;;;19.90;10.98;;;20.30;99.90;;;;;;6247507;28;20048;-78
2022/08/31 04:55:44;;;;;;;18.08;10.05;;;20.20;99.90;;;;;;6247072;28;20050;-77
2022/08/31 04:58:49;;;;;;;16.70;10.25;;;20.20;99.90;;;;;;6246781;28;20045;-77
2022/08/31 05:01:51;;;;;;;22.38;10.85;;;20.10;99.90;;;;;;6247144;28;20491;-76
2022/08/31 05:04:52;;;;;;;23.58;11.43;;;20.10;99.90;;;;;;6246287;28;20651;-78
2022/08/31 05:07:54;;;;;;;23.05;11.15;;;20.20;99.90;;;;;;6246564;28;20053;-78
2022/08/31 05:10:56;;;;;;;21.33;11.30;;;20.20;99.90;;;;;;6246577;28;20061;-76
2022/08/31 05:14:00;;;;;;;19.70;10.98;;;20.20;99.90;;;;;;6247265;28;20054;-77
2022/08/31 05:17:05;;;;;;;19.88;11.68;;;20.10;99.90;;;;;;6245739;28;20693;-77
2022/08/31 05:20:07;;;;;;;23.40;11.32;;;19.90;99.90;;;;;;6246219;28;20051;-77
2022/08/31 05:23:09;;;;;;;24.23;11.70;;;19.80;99.90;;;;;;6246346;28;20057;-78
2022/08/31 05:26:17;;;;;;;27.48;11.57;;;19.70;99.90;;;;;;6246884;28;20509;-77
2022/08/31 05:29:22;;;;;;;25.08;11.63;;;19.70;99.90;;;;;;6248922;28;20049;-77
2022/08/31 05:32:24;;;;;;;27.58;11.93;;;19.70;99.90;;;;;;6250745;28;20438;-78
2022/08/31 05:35:26;;;;;;;28.67;11.98;;;19.80;99.90;;;;;;6252209;28;20050;-78
2022/08/31 05:38:28;;;;;;;26.63;11.95;;;19.80;99.90;;;;;;6242790;28;20049;-77
2022/08/31 05:41:30;;;;;;;21.35;11.25;;;19.70;99.90;;;;;;6251559;28;20049;-77
2022/08/31 05:44:35;;;;;;;33.45;14.50;;;19.80;99.90;;;;;;6249177;28;20041;-77
2022/08/31 05:47:37;;;;;;;25.45;13.13;;;19.90;99.90;;;;;;6247792;28;20530;-78
2022/08/31 05:50:38;;;;;;;31.80;13.65;;;19.90;99.90;;;;;;6247853;28;20046;-78
2022/08/31 05:53:41;;;;;;;28.80;14.23;;;19.90;99.90;;;;;;6246650;28;20049;-76
2022/08/31 05:56:43;;;;;;;32.13;14.23;;;20.10;99.90;;;;;;6246415;28;20510;-78
2022/08/31 05:59:46;;;;;;;37.55;14.93;;;20.10;99.90;;;;;;6247284;28;20052;-78
2022/08/31 06:02:48;;;;;;;31.52;14.52;;;20.20;99.90;;;;;;6246715;28;20648;-78
2022/08/31 06:05:50;;;;;;;35.67;14.48;;;20.10;99.90;;;;;;6247454;28;20053;-78
2022/08/31 06:08:53;;;;;;;25.95;14.27;;;20.10;99.90;;;;;;6246365;28;20415;-78
2022/08/31 06:11:54;;;;;;;36.97;15.27;;;20.00;99.90;;;;;;6246846;28;20327;-79
2022/08/31 06:14:57;;;;;;;34.22;14.48;;;20.10;99.90;;;;;;6248091;28;20042;-78
2022/08/31 06:17:59;;;;;;;35.25;16.45;;;20.10;99.90;;;;;;6247853;28;20045;-78
2022/08/31 06:21:02;;;;;;;37.28;15.30;;;20.10;99.90;;;;;;6247794;28;20053;-78
2022/08/31 06:24:05;;;;;;;32.55;14.38;;;20.10;99.90;;;;;;6247637;28;20045;-77
2022/08/31 06:27:09;;;;;;;28.67;13.45;;;20.10;99.90;;;;;;6246461;28;20045;-78
2022/08/31 06:30:18;;;;;;;29.70;13.15;;;20.10;99.90;;;;;;6247570;28;20191;-78
2022/08/31 06:33:19;;;;;;;32.25;14.02;;;20.20;99.90;;;;;;6247592;28;20041;-78
2022/08/31 06:36:24;;;;;;;33.97;14.50;;;20.20;99.90;;;;;;6247600;28;20049;-78
2022/08/31 06:39:26;;;;;;;38.67;14.75;;;20.20;99.90;;;;;;6236433;28;20045;-77
2022/08/31 06:42:27;;;;;;;33.63;14.48;;;20.20;99.90;;;;;;6247565;28;20045;-78
2022/08/31 06:45:30;;;;;;;35.88;15.35;;;20.30;99.90;;;;;;6247865;28;20049;-79
2022/08/31 06:48:32;;;;;;;32.17;14.70;;;20.30;99.90;;;;;;6247602;28;20048;-77
2022/08/31 06:51:36;;;;;;;31.88;13.85;;;20.30;99.90;;;;;;6247810;28;20052;-79
2022/08/31 06:54:38;;;;;;;30.05;14.55;;;20.30;99.90;;;;;;6247815;28;20045;-78
2022/08/31 06:57:40;;;;;;;28.77;14.40;;;20.20;99.90;;;;;;6247378;28;20053;-79
2022/08/31 07:00:44;;;;;;;29.17;12.88;;;20.30;99.90;;;;;;6247946;28;20055;-78
2022/08/31 07:03:48;;;;;;;28.55;12.70;;;20.30;99.90;;;;;;6246584;28;20049;-78
2022/08/31 07:06:50;;;;;;;24.15;13.77;;;20.40;99.90;;;;;;6247139;28;20122;-78
2022/08/31 07:09:51;;;;;;;25.90;13.48;;;20.60;99.90;;;;;;6246773;28;20060;-76
2022/08/31 07:12:53;;;;;;;18.27;12.57;;;20.70;99.90;;;;;;6245601;28;20057;-78
2022/08/31 07:16:05;;;;;;;18.70;11.80;;;20.80;99.90;;;;;;6247299;28;20045;-78
2022/08/31 07:19:08;;;;;;;22.10;12.85;;;20.90;99.90;;;;;;6247236;28;20052;-77
2022/08/31 07:22:09;;;;;;;27.08;12.55;;;20.90;99.90;;;;;;6248212;28;20046;-79
2022/08/31 07:25:13;;;;;;;28.35;13.73;;;21.10;99.90;;;;;;6247845;28;20049;-79
2022/08/31 07:28:14;;;;;;;23.83;12.65;;;21.20;99.90;;;;;;6247775;28;20056;-79
2022/08/31 07:31:18;;;;;;;20.02;12.18;;;21.20;99.90;;;;;;6248332;28;20042;-79
2022/08/31 07:34:24;;;;;;;15.15;10.43;;;21.30;99.90;;;;;;6248880;28;20080;-78
2022/08/31 07:44:04;;;;;;;15.27;10.32;;;21.50;99.90;;;;;;6243230;28;20049;-80
2022/08/31 07:47:11;;;;;;;15.15;9.50;;;21.60;99.90;;;;;;6253326;28;20395;-80
2022/08/31 07:50:14;;;;;;;17.77;9.57;;;21.70;99.90;;;;;;6239080;28;20049;-80
2022/08/31 07:53:16;;;;;;;18.65;9.52;;;21.70;99.90;;;;;;6228123;28;20050;-79
2022/08/31 07:56:18;;;;;;;14.27;8.38;;;21.80;99.90;;;;;;6228383;28;20046;-77
2022/08/31 07:59:22;;;;;;;14.75;9.32;;;21.90;99.90;;;;;;6228342;28;20056;-78
2022/08/31 08:02:27;;;;;;;16.65;8.55;;;22.00;99.90;;;;;;6229135;28;20049;-79
2022/08/31 08:05:36;;;;;;;14.02;8.68;;;22.10;99.90;;;;;;6227923;28;20053;-79
2022/08/31 08:08:37;;;;;;;18.77;9.90;;;22.30;99.90;;;;;;6226625;28;20120;-81
2022/08/31 08:11:44;;;;;;;19.45;10.52;;;22.40;99.90;;;;;;6229664;28;20373;-80
2022/08/31 08:14:45;;;;;;;20.42;10.88;;;22.50;99.90;;;;;;6228079;28;20052;-78
2022/08/31 08:17:48;;;;;;;15.93;10.55;;;22.60;99.90;;;;;;6245324;28;20495;-80
2022/08/31 08:20:51;;;;;;;16.08;11.45;;;22.70;99.90;;;;;;6252347;28;20057;-78
2022/08/31 08:23:54;;;;;;;15.63;9.82;;;22.80;99.90;;;;;;6247781;28;20129;-78
2022/08/31 08:26:56;;;;;;;16.45;10.30;;;22.80;99.90;;;;;;6247474;28;20052;-78
2022/08/31 08:29:57;;;;;;;20.00;10.27;;;22.80;99.90;;;;;;6248115;28;20547;-76
2022/08/31 08:33:02;;;;;;;10.85;8.48;;;22.80;99.90;;;;;;6246649;28;20045;-76
2022/08/31 08:36:07;;;;;;;13.57;8.85;;;22.90;99.90;;;;;;6246477;28;20049;-76
2022/08/31 08:39:10;;;;;;;18.08;9.68;;;23.00;99.90;;;;;;6218582;28;20053;-75
2022/08/31 08:42:14;;;;;;;11.30;7.90;;;23.10;99.90;;;;;;6239918;28;20042;-75
2022/08/31 08:45:17;;;;;;;12.32;9.10;;;23.30;99.90;;;;;;6251076;28;20503;-75
2022/08/31 08:48:25;;;;;;;13.90;10.10;;;23.50;99.90;;;;;;6243487;28;20046;-76
2022/08/31 08:51:33;;;;;;;15.70;8.55;;;23.90;99.90;;;;;;6246216;28;20041;-75
2022/08/31 08:54:38;;;;;;;11.98;8.85;;;24.20;99.90;;;;;;6246229;28;20131;-77
2022/08/31 08:57:42;;;;;;;17.20;8.30;;;24.60;99.90;;;;;;6246432;28;20057;-76
2022/08/31 09:00:45;;;;;;;13.60;8.73;;;24.90;99.90;;;;;;6246395;28;20053;-76
2022/08/31 09:03:58;;;;;;;10.77;6.88;;;24.90;99.90;;;;;;6245999;28;20053;-76
2022/08/31 09:07:19;;;;;;;11.43;7.55;;;24.70;99.90;;;;;;6242455;28;20440;-76
2022/08/31 09:10:29;;;;;;;11.85;8.75;;;24.60;99.90;;;;;;6233666;28;20057;-76
2022/08/31 09:13:36;;;;;;;14.55;8.50;;;24.40;99.90;;;;;;6246671;28;20496;-78
2022/08/31 09:16:46;;;;;;;12.82;8.48;;;24.00;99.90;;;;;;6246425;28;20522;-75
2022/08/31 09:19:58;;;;;;;12.95;8.73;;;23.80;99.90;;;;;;6246127;28;20049;-76
2022/08/31 09:23:05;;;;;;;14.90;9.43;;;23.70;99.90;;;;;;6246382;28;20049;-76
2022/08/31 09:26:10;;;;;;;16.05;8.90;;;23.30;99.90;;;;;;6247697;28;20057;-76
2022/08/31 09:29:21;;;;;;;12.52;9.75;;;23.10;99.90;;;;;;6245909;28;20455;-75
2022/08/31 09:32:25;;;;;;;12.55;8.70;;;23.00;99.90;;;;;;6246543;28;20038;-75
2022/08/31 09:35:35;;;;;;;16.90;8.90;;;22.90;99.90;;;;;;6246045;28;20059;-77
2022/08/31 09:38:39;;;;;;;11.88;8.95;;;22.80;99.90;;;;;;6244971;28;20252;-75
2022/08/31 09:41:40;;;;;;;13.70;9.63;;;22.70;99.90;;;;;;6242243;28;20053;-75
2022/08/31 09:44:45;;;;;;;12.43;9.80;;;22.70;99.90;;;;;;6245421;28;20045;-75
2022/08/31 09:47:54;;;;;;;20.63;11.07;;;22.60;99.90;;;;;;6245777;28;20052;-75
2022/08/31 09:51:03;;;;;;;11.98;8.77;;;22.50;99.90;;;;;;6248530;28;20052;-75
2022/08/31 09:57:44;;;;;;;16.67;9.52;;;22.20;99.90;;;;;;6245573;28;20045;-75
2022/08/31 10:00:50;;;;;;;14.68;8.73;;;22.00;99.90;;;;;;6226180;28;20420;-75
2022/08/31 10:04:11;;;;;;;21.98;7.57;;;21.90;99.90;;;;;;6242087;28;20053;-75
2022/08/31 10:07:23;;;;;;;13.38;8.27;;;21.50;99.90;;;;;;6244665;28;20056;-74
2022/08/31 10:10:30;;;;;;;9.75;7.55;;;21.10;99.90;;;;;;6244924;28;20407;-75
2022/08/31 10:13:37;;;;;;;17.80;8.05;;;20.80;99.90;;;;;;6245166;28;20045;-75
2022/08/31 10:16:46;;;;;;;15.85;7.25;;;20.50;99.90;;;;;;6230266;28;20052;-75
2022/08/31 10:19:55;;;;;;;11.10;6.45;;;20.30;99.90;;;;;;6239713;28;20408;-75
2022/08/31 10:23:07;;;;;;;10.73;7.10;;;20.10;99.90;;;;;;6244471;28;20055;-79
2022/08/31 10:26:16;;;;;;;14.15;9.43;;;19.90;99.90;;;;;;6237000;28;20053;-77
2022/08/31 10:29:22;;;;;;;14.00;7.57;;;19.90;99.90;;;;;;6237135;28;20064;-76
2022/08/31 10:32:33;;;;;;;17.55;10.20;;;19.90;99.90;;;;;;6245000;28;20041;-76
2022/08/31 10:35:43;;;;;;;11.52;8.32;;;20.10;99.90;;;;;;6236430;28;20060;-75
2022/08/31 10:38:49;;;;;;;12.43;7.97;;;20.30;99.90;;;;;;6244810;28;20042;-75
2022/08/31 10:41:51;;;;;;;11.82;7.47;;;20.40;99.90;;;;;;6238109;28;20517;-76
2022/08/31 10:45:03;;;;;;;12.32;8.38;;;20.50;99.90;;;;;;6240721;28;20061;-75
2022/08/31 10:48:05;;;;;;;15.32;9.35;;;20.70;99.90;;;;;;6244309;28;20049;-76
2022/08/31 10:51:18;;;;;;;14.93;8.85;;;20.80;99.90;;;;;;6244814;28;20049;-75
2022/08/31 10:54:35;;;;;;;13.18;7.65;;;20.80;99.90;;;;;;6244623;28;20080;-75
2022/08/31 10:57:45;;;;;;;18.50;9.23;;;20.70;99.90;;;;;;6244612;28;20475;-76
2022/08/31 11:00:51;;;;;;;14.60;8.65;;;20.70;99.90;;;;;;6236607;28;20299;-76
2022/08/31 11:04:20;;;;;;;14.35;9.45;;;20.80;99.90;;;;;;6244382;28;20049;-75
2022/08/31 11:07:36;;;;;;;12.70;8.20;;;20.90;99.90;;;;;;6220409;28;20060;-75
2022/08/31 11:10:47;;;;;;;14.77;9.48;;;20.70;99.90;;;;;;6243874;28;20049;-76
2022/08/31 11:14:15;;;;;;;17.13;8.73;;;20.70;99.90;;;;;;6238882;28;20053;-76
2022/08/31 11:17:33;;;;;;;18.13;8.07;;;20.70;99.90;;;;;;6248147;28;20136;-76
2022/08/31 11:20:51;;;;;;;15.35;8.07;;;20.60;99.90;;;;;;6249234;28;20049;-76
2022/08/31 11:24:06;;;;;;;13.47;8.13;;;20.40;99.90;;;;;;6240460;28;20042;-75
2022/08/31 11:27:19;;;;;;;16.55;9.02;;;20.50;99.90;;;;;;6248968;28;20342;-76
2022/08/31 11:30:25;;;;;;;11.10;8.15;;;20.60;99.90;;;;;;6248728;28;20414;-76
2022/08/31 11:33:30;;;;;;;12.23;8.55;;;20.60;99.90;;;;;;6249424;28;20054;-76
2022/08/31 11:36:51;;;;;;;13.57;8.88;;;20.60;99.90;;;;;;6248813;28;20502;-76
2022/08/31 11:39:53;;;;;;;13.18;9.68;;;20.80;99.90;;;;;;6248602;28;20422;-76
2022/08/31 11:43:00;;;;;;;11.75;9.13;;;21.00;99.90;;;;;;6245708;28;20041;-75
2022/08/31 11:46:40;;;;;;;11.43;8.38;;;21.30;99.90;;;;;;6245128;28;20136;-75
2022/08/31 11:49:45;;;;;;;12.27;8.73;;;21.30;99.90;;;;;;6240423;28;20056;-76
2022/08/31 11:52:49;;;;;;;10.50;8.18;;;21.30;99.90;;;;;;6247929;28;20065;-77
2022/08/31 11:55:54;;;;;;;13.85;8.45;;;21.40;99.90;;;;;;6248195;28;20057;-76
2022/08/31 11:59:19;;;;;;;11.95;7.93;;;21.50;99.90;;;;;;6247960;28;20052;-76
2022/08/31 12:02:42;;;;;;;13.93;8.02;;;21.40;99.90;;;;;;6248366;28;20068;-77
2022/08/31 12:05:49;;;;;;;12.65;8.55;;;21.50;99.90;;;;;;6248530;28;20049;-76
2022/08/31 12:08:53;;;;;;;12.33;8.53;;;21.50;99.90;;;;;;6247552;28;20687;-76
2022/08/31 12:12:06;;;;;;;13.73;9.35;;;21.60;99.90;;;;;;6243266;28;20069;-75
2022/08/31 12:15:18;;;;;;;13.80;8.13;;;21.60;99.90;;;;;;6236623;28;20040;-76
2022/08/31 12:18:37;;;;;;;12.40;7.80;;;21.70;99.90;;;;;;6222337;28;20058;-76
2022/08/31 12:25:24;;;;;;;12.98;8.80;;;22.30;99.90;;;;;;6223225;28;20046;-77
2022/08/31 12:28:34;;;;;;;12.07;8.85;;;22.60;99.90;;;;;;6223017;28;20050;-76
2022/08/31 12:31:39;;;;;;;15.95;8.80;;;23.00;99.90;;;;;;6223324;28;20049;-76
2022/08/31 12:34:47;;;;;;;13.00;7.90;;;23.30;99.90;;;;;;6223049;28;20054;-77
2022/08/31 12:37:58;;;;;;;12.18;7.82;;;23.60;99.90;;;;;;6222888;28;20431;-77
2022/08/31 12:41:01;;;;;;;9.82;7.80;;;23.80;99.90;;;;;;6227177;28;20049;-75
2022/08/31 12:44:04;;;;;;;10.45;7.38;;;23.80;99.90;;;;;;6243166;28;20420;-77
2022/08/31 12:47:17;;;;;;;10.85;7.18;;;24.00;99.90;;;;;;6227954;28;20046;-77
2022/08/31 12:50:26;;;;;;;10.20;7.30;;;24.10;99.90;;;;;;6222483;28;20492;-76
2022/08/31 12:54:00;;;;;;;10.32;7.25;;;24.20;99.90;;;;;;6223077;28;20130;-76
2022/08/31 12:57:09;;;;;;;11.50;6.53;;;24.30;99.90;;;;;;6222347;28;20046;-75
2022/08/31 13:00:18;;;;;;;11.18;6.60;;;24.30;99.90;;;;;;6235175;28;20179;-76
2022/08/31 13:03:25;;;;;;;8.13;6.72;;;24.30;99.90;;;;;;6247563;28;20072;-76
2022/08/31 13:06:29;;;;;;;16.67;6.88;;;24.50;99.90;;;;;;6247105;28;20187;-76
2022/08/31 13:09:34;;;;;;;8.85;4.75;;;24.40;99.90;;;;;;6247195;28;20128;-76
2022/08/31 13:12:36;;;;;;;10.88;6.70;;;24.50;99.90;;;;;;6246280;28;20056;-76
2022/08/31 13:15:42;;;;;;;7.43;5.25;;;24.60;99.90;;;;;;6246850;28;20075;-77
2022/08/31 13:18:46;;;;;;;11.30;6.47;;;24.60;99.90;;;;;;6246276;28;20045;-76
2022/08/31 13:21:53;;;;;;;9.05;5.50;;;24.60;99.90;;;;;;6247313;28;20140;-76
2022/08/31 13:25:09;;;;;;;7.35;5.63;;;24.70;99.90;;;;;;6246422;28;20470;-76
2022/08/31 13:28:24;;;;;;;11.98;6.10;;;24.70;99.90;;;;;;6241794;28;20037;-76
2022/08/31 13:31:29;;;;;;;7.95;5.50;;;24.60;99.90;;;;;;6246244;28;20114;-76
2022/08/31 13:34:40;;;;;;;11.50;4.57;;;24.60;99.90;;;;;;6246294;28;20041;-78
2022/08/31 13:37:47;;;;;;;14.35;5.78;;;24.60;99.90;;;;;;6238558;28;20054;-76
2022/08/31 13:40:51;;;;;;;12.57;6.50;;;24.60;99.90;;;;;;6222796;28;20045;-77
2022/08/31 13:44:00;;;;;;;6.68;4.18;;;24.50;99.90;;;;;;6244890;28;20415;-77
2022/08/31 13:47:04;;;;;;;8.30;4.22;;;24.30;99.90;;;;;;6227576;28;20499;-77
2022/08/31 13:50:12;;;;;;;6.95;4.50;;;24.30;99.90;;;;;;6221292;28;20049;-77
2022/08/31 13:53:38;;;;;;;6.35;4.30;;;24.40;99.90;;;;;;6233357;28;20163;-78
2022/08/31 13:56:55;;;;;;;5.93;4.00;;;24.50;99.90;;;;;;6245107;28;20053;-77
2022/08/31 14:00:17;;;;;;;7.57;4.35;;;24.50;99.90;;;;;;6244231;28;20085;-77
2022/08/31 14:03:39;;;;;;;6.82;3.90;;;24.60;99.90;;;;;;6244551;28;20056;-77
2022/08/31 14:06:51;;;;;;;6.05;3.60;;;24.60;99.90;;;;;;6244597;28;20049;-78
2022/08/31 14:09:56;;;;;;;9.43;4.05;;;24.60;98.90;;;;;;6244365;28;20468;-78
2022/08/31 14:13:00;;;;;;;8.48;4.60;;;24.40;99.10;;;;;;6243868;28;20053;-77
2022/08/31 14:16:03;;;;;;;6.95;4.28;;;24.10;98.70;;;;;;6244357;28;20206;-78
2022/08/31 14:19:05;;;;;;;5.72;3.90;;;24.00;99.90;;;;;;6227709;28;20087;-77
2022/08/31 14:22:25;;;;;;;8.07;3.85;;;24.10;99.90;;;;;;6221455;28;20049;-76
2022/08/31 14:25:29;;;;;;;5.97;4.70;;;24.20;99.90;;;;;;6228469;28;20052;-76
2022/08/31 14:28:41;;;;;;;11.30;3.95;;;24.20;99.90;;;;;;6228576;28;20057;-78
2022/08/31 14:31:47;;;;;;;11.77;5.65;;;24.10;99.20;;;;;;6220390;28;20534;-78
2022/08/31 14:34:49;;;;;;;7.10;4.45;;;24.10;99.70;;;;;;6228590;28;20045;-77
2022/08/31 14:37:53;;;;;;;7.43;4.88;;;24.20;99.90;;;;;;6244211;28;20053;-77
2022/08/31 14:40:56;;;;;;;6.22;4.32;;;24.30;99.50;;;;;;6244094;28;20202;-77
2022/08/31 14:44:05;;;;;;;9.95;4.65;;;24.30;98.50;;;;;;6244430;28;20132;-76
2022/08/31 14:47:08;;;;;;;9.45;4.60;;;24.20;99.00;;;;;;6238916;28;20049;-76
2022/08/31 14:50:11;;;;;;;5.78;4.00;;;24.20;99.90;;;;;;6248182;28;20045;-78
2022/08/31 14:53:15;;;;;;;9.15;4.68;;;24.20;99.20;;;;;;6248788;28;20044;-77
2022/08/31 14:56:25;;;;;;;8.00;5.60;;;24.20;99.30;;;;;;6235385;28;20049;-77
2022/08/31 14:59:27;;;;;;;4.70;3.90;;;24.10;99.90;;;;;;6224924;28;20049;-76
2022/08/31 15:02:32;;;;;;;7.32;4.82;;;24.10;99.90;;;;;;6224796;28;20050;-76
2022/08/31 15:05:37;;;;;;;10.45;4.75;;;24.10;99.90;;;;;;6247291;28;20117;-78
2022/08/31 15:08:41;;;;;;;9.38;5.25;;;24.20;99.90;;;;;;6248224;28;20406;-77
2022/08/31 15:11:43;;;;;;;10.45;4.88;;;24.20;99.90;;;;;;6247534;28;20049;-77
2022/08/31 15:14:45;;;;;;;9.63;4.60;;;24.30;99.90;;;;;;6232016;28;20049;-77
2022/08/31 15:17:49;;;;;;;11.20;4.90;;;24.50;99.90;;;;;;6225131;28;20054;-77
2022/08/31 15:20:51;;;;;;;8.30;4.47;;;24.70;99.90;;;;;;6224876;28;20050;-77
2022/08/31 15:23:54;;;;;;;10.45;5.03;;;24.50;99.90;;;;;;6224398;28;20038;-77
2022/08/31 15:26:58;;;;;;;6.70;5.15;;;24.40;99.90;;;;;;6224497;28;20499;-78
2022/08/31 15:30:06;;;;;;;7.43;5.00;;;24.40;99.80;;;;;;6224591;28;20050;-76
2022/08/31 15:33:08;;;;;;;6.55;5.13;;;24.30;99.20;;;;;;6224973;28;20050;-78
2022/08/31 15:36:14;;;;;;;8.73;5.20;;;24.30;99.90;;;;;;6223834;28;20518;-77
2022/08/31 15:39:17;;;;;;;11.75;5.13;;;24.40;99.90;;;;;;6223571;28;20042;-78
2022/08/31 15:42:20;;;;;;;5.40;4.40;;;24.60;99.90;;;;;;6235729;28;20469;-77
2022/08/31 15:45:24;;;;;;;10.13;5.28;;;24.70;99.90;;;;;;6246126;28;20045;-76
2022/08/31 15:48:44;;;;;;;7.80;4.95;;;24.70;99.90;;;;;;6238468;28;20041;-77
2022/08/31 15:51:48;;;;;;;8.35;5.25;;;24.80;99.90;;;;;;6248609;28;20068;-77
2022/08/31 15:54:51;;;;;;;10.25;5.22;;;24.70;99.90;;;;;;6248669;28;20049;-77
2022/08/31 15:57:54;;;;;;;7.35;5.10;;;24.80;99.90;;;;;;6248720;28;20049;-77
2022/08/31 16:00:56;;;;;;;5.70;3.72;;;24.80;99.90;;;;;;6248528;28;20058;-76
2022/08/31 16:03:58;;;;;;;9.65;5.28;;;24.90;99.90;;;;;;6247667;28;20267;-77
2022/08/31 16:07:00;;;;;;;8.88;4.95;;;25.00;99.90;;;;;;6247714;28;20176;-77
2022/08/31 16:10:11;;;;;;;8.27;4.93;;;24.90;99.90;;;;;;6248322;28;20136;-76
2022/08/31 16:13:15;;;;;;;14.75;5.18;;;24.70;99.90;;;;;;6248033;28;20188;-76